Time;durP1;ratioP1;P1;durP2;ratioP2;P2;SDS_P1;SDS_P2;PMS_P1;PMS_P2;Temp;Humidity;BMP_temperature;BMP_pressure;BME280_temperature;BME280_humidity;BME280_pressure;Samples;Min_cycle;Max_cycle;Signal;HPM_P1;HPM_P2
2022/04/18 00:01:59;;;;;;;14.80;9.27;;;;;;;;;;4903719;29;20047;-93
2022/04/18 00:15:26;;;;;;;15.60;9.85;;;;;;;;;;4923466;29;20214;-94
2022/04/18 00:17:56;;;;;;;15.00;9.48;;;;;;;;;;4901275;29;20024;-93
2022/04/18 00:23:49;;;;;;;14.07;9.23;;;;;;;;;;4867169;29;20056;-93
2022/04/18 00:26:27;;;;;;;16.85;10.10;;;;;;;;;;4831669;29;20147;-93
2022/04/18 00:28:59;;;;;;;15.75;10.25;;;;;;;;;;4837451;29;20072;-94
2022/04/18 00:31:31;;;;;;;16.25;9.88;;;;;;;;;;4858446;29;20574;-93
2022/04/18 00:34:04;;;;;;;14.45;10.25;;;;;;;;;;4860408;29;20620;-94
2022/04/18 00:39:36;;;;;;;16.10;10.10;;;;;;;;;;4873869;29;20168;-93
2022/04/18 00:42:10;;;;;;;16.65;10.88;;;;;;;;;;4838512;29;20044;-94
2022/04/18 00:45:07;;;;;;;17.88;10.63;;;;;;;;;;4836371;29;20179;-94
2022/04/18 00:47:52;;;;;;;16.27;11.10;;;;;;;;;;4836914;29;20057;-92
2022/04/18 00:53:49;;;;;;;15.63;10.50;;;;;;;;;;4871028;29;20533;-95
2022/04/18 00:59:27;;;;;;;17.90;10.30;;;;;;;;;;4867903;29;20096;-92
2022/04/18 01:02:09;;;;;;;17.42;11.25;;;;;;;;;;4871932;29;20044;-94
2022/04/18 01:04:35;;;;;;;15.60;11.05;;;;;;;;;;4880539;29;20048;-93
2022/04/18 01:10:46;;;;;;;17.52;11.40;;;;;;;;;;4914612;23;20072;-94
2022/04/18 01:13:18;;;;;;;19.00;11.32;;;;;;;;;;4879824;29;20204;-93
2022/04/18 01:15:44;;;;;;;16.55;10.73;;;;;;;;;;4890817;29;20234;-93
2022/04/18 01:18:10;;;;;;;16.58;10.60;;;;;;;;;;4867900;29;20432;-92
2022/04/18 01:20:36;;;;;;;17.02;11.50;;;;;;;;;;4885213;29;20131;-92
2022/04/18 01:29:16;;;;;;;18.33;11.70;;;;;;;;;;4884576;29;20051;-92
2022/04/18 01:31:43;;;;;;;17.85;11.23;;;;;;;;;;4894505;29;20052;-93
2022/04/18 01:34:10;;;;;;;18.40;11.45;;;;;;;;;;4874911;29;20625;-94
2022/04/18 01:36:37;;;;;;;21.27;11.18;;;;;;;;;;4910296;29;20115;-93
2022/04/18 01:39:04;;;;;;;17.33;10.50;;;;;;;;;;4893080;29;20055;-92
2022/04/18 01:41:30;;;;;;;19.58;11.70;;;;;;;;;;4889141;29;20408;-93
2022/04/18 01:43:57;;;;;;;16.48;10.85;;;;;;;;;;4865832;29;20432;-93
2022/04/18 01:46:23;;;;;;;17.50;11.43;;;;;;;;;;4886437;29;20047;-92
2022/04/18 01:48:52;;;;;;;18.17;10.85;;;;;;;;;;4904124;29;20495;-93
2022/04/18 01:51:48;;;;;;;16.48;11.32;;;;;;;;;;4886665;28;20048;-94
2022/04/18 01:57:14;;;;;;;16.73;9.98;;;;;;;;;;4899032;29;20071;-92
2022/04/18 01:59:42;;;;;;;18.60;11.02;;;;;;;;;;4891355;29;20396;-91
2022/04/18 02:02:11;;;;;;;18.17;10.85;;;;;;;;;;4896463;29;20036;-93
2022/04/18 02:08:41;;;;;;;;;;;;;;;;;;;;;
2022/04/18 02:11:20;;;;;;;19.58;10.80;;;;;;;;;;4927747;29;20051;-94
2022/04/18 02:14:05;;;;;;;14.18;10.70;;;;;;;;;;4897306;29;20044;-92
2022/04/18 02:19:51;;;;;;;;;;;;;;;;;;;;;
2022/04/18 02:27:51;;;;;;;18.45;9.65;;;;;;;;;;4908254;29;20075;-94
2022/04/18 02:30:59;;;;;;;17.63;10.13;;;;;;;;;;4896498;29;20195;-94
2022/04/18 02:33:26;;;;;;;15.50;10.27;;;;;;;;;;4916206;23;20086;-93
2022/04/18 02:35:52;;;;;;;15.85;9.85;;;;;;;;;;4894799;29;20132;-92
2022/04/18 02:42:15;;;;;;;15.80;10.10;;;;;;;;;;4919453;29;20140;-92
2022/04/18 02:44:45;;;;;;;15.15;10.20;;;;;;;;;;4890388;29;20050;-94
2022/04/18 02:50:44;;;;;;;14.93;9.55;;;;;;;;;;4934575;23;20054;-94
2022/04/18 02:53:18;;;;;;;14.80;9.65;;;;;;;;;;4890745;29;20043;-94
2022/04/18 02:59:32;;;;;;;14.63;10.20;;;;;;;;;;4905697;23;20044;-95
2022/04/18 03:08:58;;;;;;;19.08;11.40;;;;;;;;;;4852024;29;20052;-95
2022/04/18 03:11:25;;;;;;;16.52;10.77;;;;;;;;;;4864314;29;20061;-94
2022/04/18 03:13:52;;;;;;;15.60;11.15;;;;;;;;;;4857590;29;20045;-94
2022/04/18 03:16:18;;;;;;;16.77;11.52;;;;;;;;;;4841375;29;20037;-94
2022/04/18 03:18:45;;;;;;;17.73;12.07;;;;;;;;;;4863814;29;20048;-94
2022/04/18 03:21:12;;;;;;;17.08;11.82;;;;;;;;;;4860140;29;20047;-92
2022/04/18 03:23:39;;;;;;;17.55;11.98;;;;;;;;;;4893429;29;20039;-95
2022/04/18 03:26:35;;;;;;;19.88;11.70;;;;;;;;;;5038926;23;20025;-93
2022/04/18 03:29:28;;;;;;;18.50;11.48;;;;;;;;;;4879285;29;20139;-94
2022/04/18 03:31:54;;;;;;;17.23;10.52;;;;;;;;;;4869304;29;20044;-95
2022/04/18 03:34:20;;;;;;;18.92;10.38;;;;;;;;;;4864238;29;20048;-94
2022/04/18 03:46:04;;;;;;;16.73;11.85;;;;;;;;;;4902193;29;20066;-95
2022/04/18 03:48:55;;;;;;;16.50;11.35;;;;;;;;;;5033489;23;20018;-96
2022/04/18 03:54:24;;;;;;;19.00;12.00;;;;;;;;;;4927191;29;20119;-93
2022/04/18 03:56:55;;;;;;;17.35;11.48;;;;;;;;;;4908179;29;20044;-94
2022/04/18 03:59:37;;;;;;;;;;;;;;;;;;;;;
2022/04/18 04:02:09;;;;;;;15.70;11.40;;;;;;;;;;4903886;29;20036;-94
2022/04/18 04:07:20;;;;;;;;;;;;;;;;;;4942866;23;20092;-95
2022/04/18 04:09:48;;;;;;;20.23;11.45;;;;;;;;;;4877873;29;20658;-95
2022/04/18 04:12:25;;;;;;;16.17;11.05;;;;;;;;;;4919224;29;20524;-94
2022/04/18 04:17:47;;;;;;;19.65;11.88;;;;;;;;;;4902373;29;20055;-95
2022/04/18 04:20:23;;;;;;;;;;;;;;;;;;;;;
2022/04/18 04:23:24;;;;;;;17.73;11.30;;;;;;;;;;4898977;28;20051;-96
2022/04/18 04:26:05;;;;;;;18.25;10.65;;;;;;;;;;4912043;28;20056;-96
2022/04/18 04:31:04;;;;;;;16.67;10.65;;;;;;;;;;4939321;29;20596;-93
2022/04/18 04:33:31;;;;;;;17.90;11.77;;;;;;;;;;4925058;28;20028;-95
2022/04/18 04:36:00;;;;;;;17.10;10.63;;;;;;;;;;4932542;28;20092;-94
2022/04/18 04:41:49;;;;;;;15.57;10.65;;;;;;;;;;4928689;29;20063;-95
2022/04/18 04:44:15;;;;;;;14.23;10.00;;;;;;;;;;4904229;23;20059;-96
2022/04/18 05:05:29;;;;;;;21.58;10.55;;;;;;;;;;5087355;23;20036;-93
2022/04/18 05:07:55;;;;;;;16.02;11.35;;;;;;;;;;4884070;29;20052;-93
2022/04/18 05:10:22;;;;;;;17.70;11.63;;;;;;;;;;4879455;29;20048;-91
2022/04/18 05:15:29;;;;;;;19.70;11.30;;;;;;;;;;4918821;23;20064;-95
2022/04/18 05:31:03;;;;;;;20.23;11.68;;;;;;;;;;4949321;23;20071;-94
2022/04/18 05:39:41;;;;;;;19.13;11.20;;;;;;;;;;4911439;23;20071;-94
2022/04/18 05:42:09;;;;;;;16.70;11.90;;;;;;;;;;4857411;29;20155;-93
2022/04/18 05:44:54;;;;;;;17.92;12.02;;;;;;;;;;4845759;29;20045;-93
2022/04/18 05:47:21;;;;;;;21.13;11.65;;;;;;;;;;4864049;29;20041;-93
2022/04/18 05:49:47;;;;;;;19.65;11.98;;;;;;;;;;4867717;29;21019;-92
2022/04/18 05:52:15;;;;;;;17.75;11.82;;;;;;;;;;4861429;29;21094;-94
2022/04/18 05:54:41;;;;;;;20.92;12.20;;;;;;;;;;4877106;29;20147;-93
2022/04/18 05:57:08;;;;;;;22.50;11.27;;;;;;;;;;4851291;29;20045;-91
2022/04/18 06:02:13;;;;;;;19.60;11.75;;;;;;;;;;4925662;23;20239;-94
2022/04/18 06:04:39;;;;;;;17.98;11.27;;;;;;;;;;4895382;29;20036;-94
2022/04/18 06:07:05;;;;;;;18.00;10.77;;;;;;;;;;5076826;23;20401;-92
2022/04/18 06:09:37;;;;;;;18.42;11.60;;;;;;;;;;4866856;29;20066;-94
2022/04/18 06:12:04;;;;;;;17.80;10.93;;;;;;;;;;4861419;29;20107;-93
2022/04/18 06:14:30;;;;;;;18.90;11.07;;;;;;;;;;4895131;29;20052;-93
2022/04/18 06:16:59;;;;;;;17.38;11.02;;;;;;;;;;4878982;29;20036;-93
2022/04/18 06:25:23;;;;;;;17.83;11.05;;;;;;;;;;5411188;23;20067;-95
2022/04/18 06:27:49;;;;;;;18.15;11.50;;;;;;;;;;4896512;29;20043;-93
2022/04/18 06:30:16;;;;;;;18.77;10.30;;;;;;;;;;4921432;29;20126;-94
2022/04/18 06:32:42;;;;;;;15.85;10.32;;;;;;;;;;4901860;29;20040;-94
2022/04/18 06:35:08;;;;;;;16.40;10.02;;;;;;;;;;4903181;29;20453;-94
2022/04/18 06:37:47;;;;;;;13.45;9.65;;;;;;;;;;4925970;29;20047;-94
2022/04/18 06:40:23;;;;;;;17.00;10.32;;;;;;;;;;4894364;29;20110;-94
2022/04/18 06:43:07;;;;;;;17.25;10.80;;;;;;;;;;4876935;29;20377;-94
2022/04/18 06:48:23;;;;;;;15.63;10.40;;;;;;;;;;4918522;23;20764;-93
2022/04/18 06:50:59;;;;;;;13.68;9.93;;;;;;;;;;4894287;29;20162;-95
2022/04/18 06:53:28;;;;;;;11.75;9.18;;;;;;;;;;4888999;29;20066;-96
2022/04/18 07:02:33;;;;;;;13.52;9.10;;;;;;;;;;4920756;29;20433;-93
2022/04/18 07:17:33;;;;;;;14.30;9.32;;;;;;;;;;4909534;29;20473;-93
2022/04/18 07:20:00;;;;;;;13.10;9.02;;;;;;;;;;4893452;29;20131;-93
2022/04/18 07:25:29;;;;;;;15.40;9.27;;;;;;;;;;4894508;29;20102;-93
2022/04/18 07:31:00;;;;;;;14.48;9.30;;;;;;;;;;4899676;29;20039;-90
2022/04/18 07:33:26;;;;;;;15.95;9.82;;;;;;;;;;4861687;29;20145;-91
2022/04/18 07:36:05;;;;;;;13.07;8.80;;;;;;;;;;4875590;29;20052;-91
2022/04/18 07:41:35;;;;;;;13.87;9.67;;;;;;;;;;5050719;23;20082;-92
2022/04/18 07:44:01;;;;;;;15.60;9.57;;;;;;;;;;4889825;29;20051;-92
2022/04/18 07:46:31;;;;;;;16.13;9.98;;;;;;;;;;4860748;29;20048;-92
2022/04/18 07:48:57;;;;;;;13.98;9.77;;;;;;;;;;4856973;29;20040;-93
2022/04/18 07:51:36;;;;;;;18.20;10.30;;;;;;;;;;4894528;29;20091;-92
2022/04/18 07:56:46;;;;;;;13.38;9.90;;;;;;;;;;4926021;23;20056;-92
2022/04/18 07:59:33;;;;;;;15.18;10.07;;;;;;;;;;4872740;29;20056;-93
2022/04/18 08:04:47;;;;;;;14.05;10.30;;;;;;;;;;4886343;29;20063;-93
2022/04/18 08:07:14;;;;;;;16.95;11.00;;;;;;;;;;4873664;29;20070;-93
2022/04/18 08:09:42;;;;;;;15.35;10.85;;;;;;;;;;4891674;29;20040;-93
2022/04/18 08:12:11;;;;;;;14.90;10.23;;;;;;;;;;4874250;29;20055;-92
2022/04/18 08:14:38;;;;;;;16.10;9.93;;;;;;;;;;4888770;29;20075;-93
2022/04/18 08:22:37;;;;;;;14.93;10.43;;;;;;;;;;4908658;29;20626;-93
2022/04/18 08:25:03;;;;;;;14.48;10.02;;;;;;;;;;4890295;29;20135;-93
2022/04/18 08:27:29;;;;;;;13.60;10.13;;;;;;;;;;4891907;29;20048;-93
2022/04/18 08:32:55;;;;;;;13.85;9.23;;;;;;;;;;5024155;23;20066;-93
2022/04/18 08:35:21;;;;;;;11.80;8.98;;;;;;;;;;4902373;29;20071;-92
2022/04/18 08:37:48;;;;;;;14.23;8.82;;;;;;;;;;4908406;29;20058;-94
2022/04/18 08:43:04;;;;;;;14.70;9.52;;;;;;;;;;4926065;29;20114;-93
2022/04/18 08:45:33;;;;;;;10.48;7.70;;;;;;;;;;4902694;23;20056;-92
2022/04/18 08:54:05;;;;;;;15.02;8.15;;;;;;;;;;4903190;29;20067;-93
2022/04/18 08:56:43;;;;;;;9.88;7.78;;;;;;;;;;4895046;29;20126;-93
2022/04/18 08:59:12;;;;;;;13.13;8.10;;;;;;;;;;4877495;29;20091;-93
2022/04/18 09:01:47;;;;;;;12.52;8.23;;;;;;;;;;4891736;29;20058;-93
2022/04/18 09:07:42;;;;;;;11.05;8.10;;;;;;;;;;5228047;23;20154;-92
2022/04/18 09:10:22;;;;;;;12.02;7.97;;;;;;;;;;4872887;29;20195;-91
2022/04/18 09:15:30;;;;;;;13.80;7.70;;;;;;;;;;4944966;23;20435;-92
2022/04/18 09:18:09;;;;;;;13.32;8.23;;;;;;;;;;4902686;23;20853;-93
2022/04/18 09:20:42;;;;;;;11.40;8.43;;;;;;;;;;4874940;29;20071;-93
2022/04/18 09:28:51;;;;;;;12.35;8.02;;;;;;;;;;4932842;23;20786;-93
2022/04/18 09:31:23;;;;;;;12.43;8.05;;;;;;;;;;4884771;29;20071;-92
2022/04/18 09:37:23;;;;;;;11.20;8.55;;;;;;;;;;4943668;23;20082;-92
2022/04/18 09:39:56;;;;;;;11.68;8.02;;;;;;;;;;4899593;29;20046;-91
2022/04/18 09:42:25;;;;;;;10.63;7.32;;;;;;;;;;4901250;29;20047;-93
2022/04/18 09:51:01;;;;;;;16.73;9.55;;;;;;;;;;5012166;23;20099;-92
2022/04/18 09:53:30;;;;;;;9.85;7.55;;;;;;;;;;4883934;29;20074;-93
2022/04/18 09:56:28;;;;;;;11.05;8.50;;;;;;;;;;4885684;29;20138;-93
2022/04/18 09:59:05;;;;;;;10.77;7.55;;;;;;;;;;4930982;23;20071;-93
2022/04/18 10:04:41;;;;;;;12.25;8.50;;;;;;;;;;5086309;23;20055;-93
2022/04/18 10:07:17;;;;;;;12.15;8.10;;;;;;;;;;4913588;29;20507;-91
2022/04/18 10:09:47;;;;;;;9.35;8.13;;;;;;;;;;4912890;29;20060;-93
2022/04/18 10:12:13;;;;;;;11.98;8.27;;;;;;;;;;4893632;29;20048;-91
2022/04/18 10:14:47;;;;;;;9.60;7.47;;;;;;;;;;4905475;23;20055;-93
2022/04/18 10:17:17;;;;;;;11.10;8.30;;;;;;;;;;4895639;29;20071;-93
2022/04/18 10:19:49;;;;;;;10.13;8.45;;;;;;;;;;4892812;29;20047;-93
2022/04/18 10:22:42;;;;;;;13.00;8.45;;;;;;;;;;4890004;29;20144;-94
2022/04/18 10:25:15;;;;;;;11.45;8.60;;;;;;;;;;4891072;29;20055;-92
2022/04/18 10:31:20;;;;;;;11.45;8.63;;;;;;;;;;4887066;29;20053;-92
2022/04/18 10:34:16;;;;;;;9.48;7.68;;;;;;;;;;4855611;29;20091;-92
2022/04/18 10:37:07;;;;;;;11.13;8.05;;;;;;;;;;4872527;29;20529;-90
2022/04/18 10:40:05;;;;;;;15.65;8.90;;;;;;;;;;4839866;29;20063;-92
2022/04/18 10:42:36;;;;;;;12.20;8.95;;;;;;;;;;4849104;29;20470;-93
2022/04/18 10:45:34;;;;;;;11.70;9.13;;;;;;;;;;4870174;29;20408;-93
2022/04/18 10:51:43;;;;;;;10.23;8.57;;;;;;;;;;4922318;23;20048;-93
2022/04/18 10:54:22;;;;;;;11.77;8.20;;;;;;;;;;4877368;29;20055;-90
2022/04/18 11:06:47;;;;;;;12.18;8.90;;;;;;;;;;5300422;23;20043;-90
2022/04/18 11:09:14;;;;;;;10.43;8.93;;;;;;;;;;4843525;23;20557;-91
2022/04/18 11:31:18;;;;;;;11.65;10.07;;;;;;;;;;4098461;23;20107;-86
2022/04/18 11:33:45;;;;;;;14.15;9.18;;;;;;;;;;4910557;29;20771;-87
2022/04/18 11:36:14;;;;;;;10.45;9.05;;;;;;;;;;4915207;29;20043;-86
2022/04/18 11:38:41;;;;;;;13.20;9.68;;;;;;;;;;4928559;29;20114;-87
2022/04/18 11:41:11;;;;;;;11.95;9.77;;;;;;;;;;4877871;29;20054;-86
2022/04/18 11:43:37;;;;;;;15.90;9.43;;;;;;;;;;4885978;29;20473;-86
2022/04/18 11:46:04;;;;;;;12.90;9.25;;;;;;;;;;4892704;29;20111;-87
2022/04/18 11:48:30;;;;;;;11.10;9.85;;;;;;;;;;4925558;29;20057;-86
2022/04/18 11:50:56;;;;;;;13.85;9.90;;;;;;;;;;4875208;29;20102;-87
2022/04/18 11:53:52;;;;;;;15.13;8.95;;;;;;;;;;4909617;29;20515;-86
2022/04/18 11:56:23;;;;;;;12.65;9.30;;;;;;;;;;4905993;29;20385;-86
2022/04/18 11:58:49;;;;;;;11.95;9.35;;;;;;;;;;4922044;29;20136;-86
2022/04/18 12:06:49;;;;;;;13.48;9.02;;;;;;;;;;4906749;29;20050;-86
2022/04/18 12:09:16;;;;;;;10.55;9.02;;;;;;;;;;4905283;29;20503;-87
2022/04/18 12:11:43;;;;;;;10.40;9.35;;;;;;;;;;4908365;29;20080;-86
2022/04/18 12:14:09;;;;;;;11.63;9.13;;;;;;;;;;4910565;29;20055;-86
2022/04/18 12:16:36;;;;;;;12.82;10.02;;;;;;;;;;4894436;29;20050;-87
2022/04/18 12:19:03;;;;;;;13.18;9.75;;;;;;;;;;4910519;29;20051;-86
2022/04/18 12:21:29;;;;;;;11.52;9.50;;;;;;;;;;4910031;29;20193;-86
2022/04/18 12:23:56;;;;;;;11.98;9.45;;;;;;;;;;4927310;29;20063;-85
2022/04/18 12:26:33;;;;;;;12.10;9.73;;;;;;;;;;4925853;29;20110;-86
2022/04/18 12:29:00;;;;;;;14.38;9.45;;;;;;;;;;4890782;29;20096;-86
2022/04/18 12:31:30;;;;;;;10.32;8.88;;;;;;;;;;4925287;29;20172;-86
2022/04/18 12:33:56;;;;;;;13.68;9.40;;;;;;;;;;4926762;29;20088;-87
2022/04/18 12:36:33;;;;;;;10.10;9.00;;;;;;;;;;4928002;29;20063;-85
2022/04/18 12:38:59;;;;;;;11.23;8.82;;;;;;;;;;4929240;29;20062;-86
2022/04/18 12:41:29;;;;;;;10.98;8.75;;;;;;;;;;4911445;29;20563;-87
2022/04/18 12:43:56;;;;;;;9.38;8.38;;;;;;;;;;4907961;29;20058;-86
2022/04/18 12:46:26;;;;;;;10.15;8.90;;;;;;;;;;4907253;29;20141;-85
2022/04/18 12:48:53;;;;;;;10.95;9.48;;;;;;;;;;4909301;29;20637;-86
2022/04/18 12:51:29;;;;;;;13.05;8.82;;;;;;;;;;4909912;29;20043;-85
2022/04/18 12:53:55;;;;;;;9.90;8.80;;;;;;;;;;4886448;29;20801;-84
2022/04/18 12:56:23;;;;;;;11.75;9.10;;;;;;;;;;4912356;29;20040;-87
2022/04/18 12:58:52;;;;;;;9.63;8.52;;;;;;;;;;4926431;29;20055;-85
2022/04/18 13:01:22;;;;;;;10.48;8.93;;;;;;;;;;4923817;29;20727;-85
2022/04/18 13:03:50;;;;;;;9.50;8.38;;;;;;;;;;4919653;29;20088;-85
2022/04/18 13:06:21;;;;;;;12.55;8.75;;;;;;;;;;4913155;29;20445;-87
2022/04/18 13:08:47;;;;;;;11.88;8.95;;;;;;;;;;4904912;29;20032;-85
2022/04/18 13:11:14;;;;;;;10.88;8.52;;;;;;;;;;4872283;29;20036;-85
2022/04/18 13:13:44;;;;;;;11.02;9.07;;;;;;;;;;4887237;29;20079;-85
2022/04/18 13:16:23;;;;;;;9.75;8.75;;;;;;;;;;4905778;29;20044;-84
2022/04/18 13:19:00;;;;;;;10.18;8.65;;;;;;;;;;4876148;29;20095;-85
2022/04/18 13:21:28;;;;;;;11.20;9.20;;;;;;;;;;4889837;29;20063;-84
2022/04/18 13:23:58;;;;;;;11.98;9.85;;;;;;;;;;4891292;29;20040;-86
2022/04/18 13:26:36;;;;;;;12.82;8.40;;;;;;;;;;4922662;29;20110;-87
2022/04/18 13:29:03;;;;;;;9.52;8.60;;;;;;;;;;4891569;29;20040;-86
2022/04/18 13:31:29;;;;;;;10.52;8.93;;;;;;;;;;4887849;29;20044;-86
2022/04/18 13:33:55;;;;;;;10.65;9.00;;;;;;;;;;4878941;29;20227;-86
2022/04/18 13:39:20;;;;;;;9.80;8.68;;;;;;;;;;4926698;29;20055;-86
2022/04/18 13:41:46;;;;;;;11.77;8.77;;;;;;;;;;4891553;29;20067;-87
2022/04/18 13:44:12;;;;;;;9.77;8.77;;;;;;;;;;4879089;29;20127;-85
2022/04/18 13:46:39;;;;;;;9.98;8.93;;;;;;;;;;4877409;29;20513;-86
2022/04/18 13:49:06;;;;;;;9.50;8.35;;;;;;;;;;4893894;29;20039;-86
2022/04/18 13:51:32;;;;;;;10.65;8.55;;;;;;;;;;4890303;29;20082;-86
2022/04/18 13:53:58;;;;;;;9.60;8.10;;;;;;;;;;4891786;29;20063;-87
2022/04/18 13:56:28;;;;;;;8.98;7.80;;;;;;;;;;4923079;29;20456;-87
2022/04/18 13:58:54;;;;;;;8.82;7.93;;;;;;;;;;4924502;29;20040;-84
2022/04/18 14:01:20;;;;;;;9.52;8.25;;;;;;;;;;4889668;29;20060;-85
2022/04/18 14:03:46;;;;;;;10.50;8.57;;;;;;;;;;4891498;29;20052;-85
2022/04/18 14:06:13;;;;;;;10.20;9.10;;;;;;;;;;4874915;29;20056;-85
2022/04/18 14:09:07;;;;;;;9.90;8.48;;;;;;;;;;4921293;23;20056;-84
2022/04/18 14:32:44;;;;;;;10.35;7.95;;;;;;;;;;4966248;23;20080;-88
2022/04/18 14:35:12;;;;;;;9.75;8.70;;;;;;;;;;4878432;29;20152;-89
2022/04/18 14:37:39;;;;;;;9.85;8.07;;;;;;;;;;4889841;29;20448;-88
2022/04/18 14:40:24;;;;;;;9.85;8.82;;;;;;;;;;4859026;29;20040;-87
2022/04/18 14:42:56;;;;;;;8.30;7.50;;;;;;;;;;4906613;29;20056;-88
2022/04/18 14:55:39;;;;;;;8.73;7.68;;;;;;;;;;4908997;29;20055;-87
2022/04/18 15:05:07;;;;;;;8.35;7.55;;;;;;;;;;4906074;29;20040;-87
2022/04/18 15:07:39;;;;;;;11.93;7.60;;;;;;;;;;4886208;29;20103;-88
2022/04/18 15:12:44;;;;;;;9.00;8.10;;;;;;;;;;4926399;23;20196;-87
2022/04/18 15:18:30;;;;;;;9.10;8.20;;;;;;;;;;4932148;29;20059;-89
2022/04/18 15:23:32;;;;;;;8.73;7.30;;;;;;;;;;4934315;23;20147;-87
2022/04/18 15:26:35;;;;;;;8.68;7.18;;;;;;;;;;4856031;29;20490;-87
2022/04/18 15:29:36;;;;;;;8.98;7.70;;;;;;;;;;4890605;29;20516;-87
2022/04/18 15:35:09;;;;;;;7.68;6.88;;;;;;;;;;4892550;29;20067;-89
2022/04/18 15:37:39;;;;;;;7.80;7.00;;;;;;;;;;4891359;29;20048;-90
2022/04/18 15:46:08;;;;;;;8.77;6.90;;;;;;;;;;4918956;29;20044;-88
2022/04/18 16:02:22;;;;;;;9.43;6.40;;;;;;;;;;4890865;29;20734;-89
2022/04/18 16:09:07;;;;;;;7.70;6.50;;;;;;;;;;4903284;29;21595;-90
2022/04/18 16:15:05;;;;;;;6.70;6.03;;;;;;;;;;4906757;29;20059;-88
2022/04/18 16:17:31;;;;;;;7.03;6.00;;;;;;;;;;4899849;29;20636;-89
2022/04/18 16:20:08;;;;;;;6.90;6.15;;;;;;;;;;4894269;29;20448;-89
2022/04/18 16:39:35;;;;;;;5.88;5.05;;;;;;;;;;4918617;29;20112;-89
2022/04/18 16:48:27;;;;;;;8.30;5.28;;;;;;;;;;4910414;29;20075;-89
2022/04/18 17:33:38;;;;;;;4.90;3.85;;;;;;;;;;4925200;29;20032;-90
2022/04/18 17:36:04;;;;;;;6.88;4.28;;;;;;;;;;4896275;29;20094;-89
2022/04/18 17:38:31;;;;;;;8.13;4.18;;;;;;;;;;4895015;29;20494;-88
2022/04/18 17:41:00;;;;;;;6.45;3.97;;;;;;;;;;4908573;29;20459;-89
2022/04/18 17:43:27;;;;;;;7.80;4.00;;;;;;;;;;4913348;29;20048;-90
2022/04/18 17:45:56;;;;;;;5.95;3.63;;;;;;;;;;4910556;29;20127;-90
2022/04/18 17:48:22;;;;;;;6.55;4.10;;;;;;;;;;4892793;29;20499;-88
2022/04/18 17:50:48;;;;;;;6.35;3.78;;;;;;;;;;4926796;29;20072;-89
2022/04/18 17:56:02;;;;;;;3.95;3.55;;;;;;;;;;4913498;29;20055;-88
2022/04/18 17:58:31;;;;;;;4.30;3.38;;;;;;;;;;4902094;29;20043;-89
2022/04/18 18:00:59;;;;;;;4.40;3.17;;;;;;;;;;4905397;29;20501;-89
2022/04/18 18:03:28;;;;;;;5.97;4.00;;;;;;;;;;4909978;29;20066;-87
2022/04/18 18:06:14;;;;;;;4.50;3.38;;;;;;;;;;4909611;29;20059;-88
2022/04/18 18:08:40;;;;;;;6.40;3.33;;;;;;;;;;4890997;29;21130;-88
2022/04/18 18:11:06;;;;;;;4.53;3.55;;;;;;;;;;4909447;29;20571;-87
2022/04/18 18:13:33;;;;;;;3.85;2.97;;;;;;;;;;4911862;29;20475;-88
2022/04/18 18:15:59;;;;;;;5.63;3.55;;;;;;;;;;4898448;29;20054;-87
2022/04/18 18:18:25;;;;;;;4.85;3.50;;;;;;;;;;4880098;29;20050;-87
2022/04/18 18:20:51;;;;;;;3.92;3.10;;;;;;;;;;4882675;29;20055;-87
2022/04/18 18:23:17;;;;;;;3.85;3.20;;;;;;;;;;4881611;29;20476;-87
2022/04/18 18:25:44;;;;;;;4.88;3.53;;;;;;;;;;4931123;29;20512;-87
2022/04/18 18:28:10;;;;;;;4.38;3.63;;;;;;;;;;4886022;29;20127;-87
2022/04/18 18:30:42;;;;;;;8.30;4.22;;;;;;;;;;5096243;23;20411;-88
2022/04/18 18:33:12;;;;;;;8.70;4.10;;;;;;;;;;4896601;29;20054;-89
2022/04/18 18:35:42;;;;;;;10.98;4.07;;;;;;;;;;4897195;29;20103;-89
2022/04/18 18:38:08;;;;;;;6.85;3.88;;;;;;;;;;4878972;29;20051;-88
2022/04/18 18:40:35;;;;;;;4.45;3.80;;;;;;;;;;4880536;29;20067;-89
2022/04/18 18:43:02;;;;;;;4.75;4.10;;;;;;;;;;4884551;29;20187;-89
2022/04/18 18:48:07;;;;;;;5.65;4.65;;;;;;;;;;4959985;23;20420;-88
2022/04/18 18:53:49;;;;;;;5.22;4.20;;;;;;;;;;4897677;29;20078;-88
2022/04/18 18:56:25;;;;;;;5.32;3.90;;;;;;;;;;4897230;29;20054;-88
2022/04/18 19:05:50;;;;;;;;;;;;;;;;;;;;;
2022/04/18 19:08:57;;;;;;;4.82;3.40;;;;;;;;;;4931466;29;20147;-90
2022/04/18 19:15:41;;;;;;;4.03;3.40;;;;;;;;;;4921329;29;20621;-88
2022/04/18 19:27:32;;;;;;;6.32;4.35;;;;;;;;;;4865175;29;20060;-89
2022/04/18 19:29:58;;;;;;;5.85;3.97;;;;;;;;;;4868459;29;20041;-90
2022/04/18 19:32:45;;;;;;;6.30;4.55;;;;;;;;;;4876819;29;20052;-89
2022/04/18 19:35:11;;;;;;;26.33;23.70;;;;;;;;;;4843568;29;20057;-90
2022/04/18 19:38:10;;;;;;;35.22;31.67;;;;;;;;;;4861807;29;20108;-89
2022/04/18 19:41:06;;;;;;;;;;;;;;;;;;;;;
2022/04/18 19:43:59;;;;;;;15.13;13.50;;;;;;;;;;4863955;29;20492;-89
2022/04/18 19:46:28;;;;;;;13.25;11.85;;;;;;;;;;4831857;29;20053;-88
2022/04/18 19:49:19;;;;;;;10.80;9.70;;;;;;;;;;4836101;29;20151;-90
2022/04/18 19:55:04;;;;;;;7.10;4.20;;;;;;;;;;4843586;29;20065;-90
2022/04/18 19:58:11;;;;;;;4.78;3.92;;;;;;;;;;4860871;29;20067;-90
2022/04/18 20:04:09;;;;;;;4.70;3.80;;;;;;;;;;4863706;29;20043;-90
2022/04/18 20:14:03;;;;;;;12.55;11.20;;;;;;;;;;4908623;29;20397;-92
2022/04/18 20:23:27;;;;;;;8.63;6.15;;;;;;;;;;5121490;23;20946;-91
2022/04/18 20:36:21;;;;;;;12.18;10.65;;;;;;;;;;4934637;23;20063;-91
2022/04/18 20:50:02;;;;;;;6.57;4.30;;;;;;;;;;4927724;29;20074;-93
2022/04/18 21:02:39;;;;;;;5.93;4.28;;;;;;;;;;4872232;29;20040;-92
2022/04/18 21:05:09;;;;;;;5.25;4.47;;;;;;;;;;4860520;29;20509;-92
2022/04/18 21:17:57;;;;;;;4.85;3.55;;;;;;;;;;4888274;29;20055;-90
2022/04/18 21:26:57;;;;;;;5.82;3.75;;;;;;;;;;4937308;29;20054;-93
2022/04/18 21:29:24;;;;;;;5.60;4.20;;;;;;;;;;4916639;28;20039;-93
2022/04/18 21:31:50;;;;;;;6.00;3.65;;;;;;;;;;4919423;29;20951;-93
2022/04/18 21:41:11;;;;;;;5.63;4.40;;;;;;;;;;4927834;23;20091;-91
2022/04/18 21:43:38;;;;;;;5.57;4.40;;;;;;;;;;4889353;29;20044;-93
2022/04/18 21:46:04;;;;;;;6.10;4.57;;;;;;;;;;4856110;29;20123;-91
2022/04/18 22:00:55;;;;;;;7.28;5.72;;;;;;;;;;4889787;23;20076;31
2022/04/18 22:03:48;;;;;;;7.25;5.28;;;;;;;;;;4863873;29;20057;-89
2022/04/18 22:09:38;;;;;;;8.55;5.55;;;;;;;;;;4915009;23;20076;-92
2022/04/18 22:15:26;;;;;;;8.45;6.00;;;;;;;;;;4895840;29;20490;-91
2022/04/18 22:27:03;;;;;;;6.15;4.75;;;;;;;;;;4836471;29;20137;-92
2022/04/18 22:29:47;;;;;;;7.28;5.53;;;;;;;;;;4860120;23;20078;-91
2022/04/18 22:32:14;;;;;;;8.02;5.45;;;;;;;;;;4889640;29;20706;-89
2022/04/18 22:34:49;;;;;;;9.23;5.50;;;;;;;;;;4874731;29;20032;-90
2022/04/18 22:48:42;;;;;;;6.80;5.50;;;;;;;;;;4882237;29;20056;-91
2022/04/18 22:51:36;;;;;;;8.45;6.07;;;;;;;;;;4899050;29;20425;-91
2022/04/18 22:57:50;;;;;;;8.77;6.22;;;;;;;;;;4931357;23;20111;-89
2022/04/18 23:03:49;;;;;;;9.27;6.60;;;;;;;;;;4952604;23;20964;-89
2022/04/18 23:13:15;;;;;;;9.73;6.80;;;;;;;;;;4912477;29;20079;-89
2022/04/18 23:15:41;;;;;;;10.18;6.97;;;;;;;;;;4897901;23;20689;-89
2022/04/18 23:18:14;;;;;;;9.20;6.05;;;;;;;;;;4885118;29;20049;-89
2022/04/18 23:24:03;;;;;;;11.38;7.05;;;;;;;;;;4905210;29;20182;-93
2022/04/18 23:26:29;;;;;;;8.25;6.32;;;;;;;;;;4905914;23;20527;-91
2022/04/18 23:28:56;;;;;;;9.77;7.18;;;;;;;;;;4912010;29;20040;-93
2022/04/18 23:31:25;;;;;;;9.20;6.93;;;;;;;;;;4910204;29;20428;-92
2022/04/18 23:33:54;;;;;;;10.40;7.07;;;;;;;;;;5054391;23;20530;-90
2022/04/18 23:36:27;;;;;;;9.60;7.38;;;;;;;;;;4870642;29;20051;-90
2022/04/18 23:42:16;;;;;;;9.98;7.43;;;;;;;;;;4927214;23;20408;-92
2022/04/18 23:47:42;;;;;;;10.40;7.70;;;;;;;;;;4933130;23;20067;-90
2022/04/18 23:52:57;;;;;;;9.38;7.28;;;;;;;;;;4905176;29;20103;-91
2022/04/18 23:59:04;;;;;;;9.93;8.00;;;;;;;;;;4904968;29;20046;-91
